Time;durP1;ratioP1;P1;durP2;ratioP2;P2;SDS_P1;SDS_P2;PMS_P1;PMS_P2;Temp;Humidity;BMP_temperature;BMP_pressure;BME280_temperature;BME280_humidity;BME280_pressure;Samples;Min_cycle;Max_cycle;Signal;HPM_P1;HPM_P2
2022/02/03 00:05:59;;;;;;;6.80;5.57;;;5.00;99.90;;;;;;4993744;28;20402;-78
2022/02/03 00:24:39;;;;;;;8.57;4.90;;;5.10;99.90;;;;;;4994382;28;20049;-84
2022/02/03 00:27:40;;;;;;;6.97;5.00;;;5.10;99.90;;;;;;4993107;28;20042;-82
2022/02/03 00:30:12;;;;;;;6.38;5.50;;;5.00;99.90;;;;;;4993573;28;20038;-81
2022/02/03 00:38:01;;;;;;;;;;;4.90;99.90;;;;;;4994297;28;20037;-80
2022/02/03 00:49:00;;;;;;;5.82;4.55;;;4.90;99.90;;;;;;4992288;28;20522;-79
2022/02/03 00:51:29;;;;;;;4.80;4.30;;;4.90;99.90;;;;;;4991758;28;20402;-80
2022/02/03 00:53:57;;;;;;;5.30;4.80;;;4.90;99.90;;;;;;4992385;28;20402;-80
2022/02/03 00:57:08;;;;;;;7.43;5.00;;;4.90;99.90;;;;;;4991903;28;20053;-79
2022/02/03 00:59:43;;;;;;;6.65;4.63;;;5.00;99.90;;;;;;4965605;28;20056;-81
2022/02/03 01:02:14;;;;;;;5.05;4.28;;;5.10;99.90;;;;;;4991642;28;20046;-80
2022/02/03 01:04:43;;;;;;;8.38;4.63;;;5.00;99.90;;;;;;4992934;28;20117;-84
2022/02/03 01:07:15;;;;;;;6.18;4.38;;;5.30;99.90;;;;;;4993225;28;20049;-89
2022/02/03 01:10:04;;;;;;;5.50;4.57;;;5.20;99.90;;;;;;4993413;28;20060;-80
2022/02/03 01:15:46;;;;;;;6.30;4.55;;;5.20;99.90;;;;;;4913312;29;20063;-80
2022/02/03 01:19:02;;;;;;;5.75;4.53;;;5.20;99.90;;;;;;4913804;29;20084;-81
2022/02/03 01:21:39;;;;;;;5.68;4.45;;;5.10;99.90;;;;;;4972326;28;20062;-82
2022/02/03 01:45:53;;;;;;;4.47;4.07;;;5.80;99.90;;;;;;4991726;28;20054;-82
2022/02/03 01:53:43;;;;;;;4.50;4.10;;;5.60;99.90;;;;;;4991389;28;20050;-79
2022/02/03 01:56:31;;;;;;;5.85;4.20;;;5.60;99.90;;;;;;4991630;28;20054;-81
2022/02/03 01:59:03;;;;;;;4.82;4.10;;;5.50;99.90;;;;;;4991256;28;20050;-84
2022/02/03 02:01:33;;;;;;;5.07;4.40;;;5.50;99.90;;;;;;4991710;28;20038;-80
2022/02/03 02:04:12;;;;;;;4.57;3.97;;;5.40;99.90;;;;;;4992161;28;20057;-87
2022/02/03 02:07:08;;;;;;;6.93;4.53;;;5.20;99.90;;;;;;4992520;28;20074;-80
2022/02/03 02:09:46;;;;;;;7.68;4.30;;;5.30;99.90;;;;;;4991421;28;20050;-77
2022/02/03 02:12:39;;;;;;;6.50;4.53;;;5.30;99.90;;;;;;4974063;28;20492;-78
2022/02/03 02:37:54;;;;;;;4.65;4.20;;;5.30;99.90;;;;;;4996801;28;20080;-86
2022/02/03 02:43:22;;;;;;;4.32;3.92;;;5.20;99.90;;;;;;4994626;28;20043;-77
2022/02/03 02:46:12;;;;;;;4.50;4.10;;;5.10;99.90;;;;;;4994559;28;20042;-80
2022/02/03 02:49:11;;;;;;;4.40;4.00;;;5.00;99.90;;;;;;4994697;28;20121;-77
2022/02/03 02:52:00;;;;;;;6.93;5.00;;;5.00;99.90;;;;;;4994194;28;20048;-77
2022/02/03 03:33:53;;;;;;;5.97;4.22;;;5.30;99.90;;;;;;4993788;28;20498;-80
2022/02/03 03:36:13;;;;;;;4.63;4.22;;;5.20;99.90;;;;;;4993082;28;20038;-82
2022/02/03 03:38:45;;;;;;;5.47;4.40;;;5.20;99.90;;;;;;4994537;28;20497;-87
2022/02/03 03:41:17;;;;;;;5.93;4.47;;;5.30;99.90;;;;;;4978641;28;20379;-89
2022/02/03 03:44:10;;;;;;;5.68;4.30;;;5.20;99.90;;;;;;4996416;28;20038;-88
2022/02/03 03:46:39;;;;;;;5.35;4.13;;;5.30;99.90;;;;;;4996885;28;20539;-90
2022/02/03 03:49:32;;;;;;;6.13;4.53;;;5.50;99.90;;;;;;4995621;28;20504;-79
2022/02/03 03:52:12;;;;;;;5.03;4.30;;;5.40;99.90;;;;;;4977805;28;20065;-81
2022/02/03 03:54:52;;;;;;;4.30;3.90;;;5.50;99.90;;;;;;4995876;28;20042;-85
2022/02/03 04:30:54;;;;;;;6.07;5.47;;;5.20;99.90;;;;;;4993398;28;20089;-82
2022/02/03 04:56:18;;;;;;;5.43;4.72;;;5.20;99.90;;;;;;4991840;28;20524;-77
2022/02/03 05:05:12;;;;;;;6.13;4.82;;;5.20;99.90;;;;;;4992083;28;20053;-84
2022/02/03 05:17:30;;;;;;;6.82;4.97;;;5.10;99.90;;;;;;4992243;28;20055;-83
2022/02/03 05:26:32;;;;;;;7.63;4.55;;;5.30;99.90;;;;;;4991731;28;20050;-84
2022/02/03 06:08:26;;;;;;;10.43;5.50;;;5.30;99.90;;;;;;4995243;28;20058;-82
2022/02/03 06:22:41;;;;;;;5.20;4.70;;;5.50;99.90;;;;;;4995017;28;20069;-76
2022/02/03 06:27:54;;;;;;;7.20;5.38;;;5.30;99.90;;;;;;4993811;28;20402;-77
2022/02/03 06:30:22;;;;;;;9.98;4.95;;;5.50;99.90;;;;;;4993644;28;20050;-84
2022/02/03 06:32:49;;;;;;;5.03;4.53;;;5.30;99.90;;;;;;4994566;28;20038;-77
2022/02/03 06:35:17;;;;;;;5.78;4.70;;;5.40;99.90;;;;;;4995389;28;20399;-82
2022/02/03 06:37:48;;;;;;;8.38;5.03;;;5.40;99.90;;;;;;4994268;28;20524;-77
2022/02/03 06:40:16;;;;;;;;;;;5.50;99.90;;;;;;4995103;28;20042;-84
2022/02/03 06:42:45;;;;;;;6.20;4.97;;;5.60;99.90;;;;;;4994236;28;19922;-81
2022/02/03 06:45:28;;;;;;;6.20;4.90;;;5.60;99.90;;;;;;4993656;28;20117;-78
2022/02/03 06:48:02;;;;;;;10.00;6.07;;;5.60;99.90;;;;;;4992918;28;20417;-77
2022/02/03 06:50:35;;;;;;;5.30;4.45;;;5.70;99.90;;;;;;4994449;28;20486;-74
2022/02/03 06:53:16;;;;;;;5.72;5.05;;;5.60;99.90;;;;;;4993694;28;20490;-82
2022/02/03 06:55:50;;;;;;;6.57;5.22;;;5.70;99.90;;;;;;4994014;28;20042;-82
2022/02/03 06:58:25;;;;;;;5.88;5.28;;;5.80;99.90;;;;;;4994684;28;20046;-86
2022/02/03 07:03:31;;;;;;;6.93;5.75;;;5.80;99.90;;;;;;4994575;28;20042;-77
2022/02/03 07:05:59;;;;;;;43.72;23.60;;;5.70;99.90;;;;;;4993751;28;20409;-74
2022/02/03 07:08:28;;;;;;;13.98;9.32;;;5.60;99.90;;;;;;4993783;28;20047;-75
2022/02/03 07:10:57;;;;;;;9.93;6.88;;;5.70;99.90;;;;;;4983405;28;20057;-88
2022/02/03 07:13:25;;;;;;;7.28;5.95;;;5.60;99.90;;;;;;4990861;28;20045;-84
2022/02/03 07:15:52;;;;;;;7.05;5.72;;;5.50;99.90;;;;;;4992944;28;20061;-84
2022/02/03 07:18:19;;;;;;;6.55;5.43;;;5.80;99.90;;;;;;4995286;28;20038;-78
2022/02/03 07:20:47;;;;;;;7.22;6.43;;;6.00;99.90;;;;;;4993830;28;20052;-80
2022/02/03 07:23:15;;;;;;;19.92;11.73;;;6.20;99.90;;;;;;4993606;28;20057;-82
2022/02/03 07:25:43;;;;;;;6.43;5.18;;;6.10;99.90;;;;;;4982169;28;20077;-76
2022/02/03 07:28:12;;;;;;;7.22;5.28;;;5.70;99.90;;;;;;4999920;28;20037;-85
2022/02/03 07:30:39;;;;;;;8.43;5.28;;;5.70;99.90;;;;;;4998919;28;20057;-84
2022/02/03 07:33:08;;;;;;;5.53;4.68;;;5.60;99.90;;;;;;4996198;28;20049;-83
2022/02/03 07:35:35;;;;;;;6.50;5.40;;;5.70;99.90;;;;;;4995232;28;20375;-85
2022/02/03 07:38:05;;;;;;;5.82;5.22;;;5.80;99.90;;;;;;4994060;28;20065;-83
2022/02/03 07:40:34;;;;;;;8.35;5.47;;;5.70;99.90;;;;;;4993552;28;20034;-85
2022/02/03 07:43:04;;;;;;;9.35;5.45;;;5.60;99.90;;;;;;4993995;28;20038;-74
2022/02/03 07:45:32;;;;;;;;;;;5.70;99.90;;;;;;4991386;28;20402;-74
2022/02/03 07:48:00;;;;;;;5.72;5.10;;;5.60;99.90;;;;;;4993248;28;20362;-78
2022/02/03 07:50:27;;;;;;;6.97;5.38;;;5.60;99.90;;;;;;4975915;28;20054;-73
2022/02/03 07:52:56;;;;;;;7.55;6.07;;;5.60;99.90;;;;;;4993137;28;20042;-75
2022/02/03 07:55:25;;;;;;;7.22;5.70;;;5.70;99.90;;;;;;4993189;28;20050;-74
2022/02/03 07:57:54;;;;;;;6.50;5.55;;;5.70;99.90;;;;;;4993185;28;20047;-78
2022/02/03 08:00:23;;;;;;;6.78;5.30;;;5.70;99.90;;;;;;4992832;28;20133;-74
2022/02/03 08:03:12;;;;;;;8.63;6.15;;;6.00;99.90;;;;;;4992846;28;20045;-73
2022/02/03 08:05:48;;;;;;;10.02;5.82;;;5.80;99.90;;;;;;4976255;28;20387;-73
2022/02/03 08:10:55;;;;;;;8.32;5.55;;;5.80;99.90;;;;;;4992948;28;20046;-77
2022/02/03 08:13:28;;;;;;;7.38;5.43;;;6.00;99.90;;;;;;4993008;28;20121;-77
2022/02/03 08:16:24;;;;;;;7.72;5.82;;;5.80;99.90;;;;;;4992778;28;20082;-81
2022/02/03 08:18:47;;;;;;;6.53;5.22;;;5.80;99.90;;;;;;4992744;28;20046;-72
2022/02/03 08:21:16;;;;;;;7.50;5.53;;;5.90;99.90;;;;;;4992758;28;20050;-72
2022/02/03 08:24:10;;;;;;;7.13;5.57;;;6.00;99.90;;;;;;4992468;28;20045;-75
2022/02/03 08:29:16;;;;;;;7.53;5.80;;;6.10;99.90;;;;;;4991889;28;20035;-77
2022/02/03 08:32:31;;;;;;;8.52;5.85;;;6.10;99.90;;;;;;4989373;28;20402;-76
2022/02/03 08:34:46;;;;;;;10.68;5.70;;;6.00;99.90;;;;;;4981116;28;20537;-79
2022/02/03 08:37:16;;;;;;;8.27;5.53;;;5.90;99.90;;;;;;4991180;28;20049;-76
2022/02/03 08:39:52;;;;;;;12.25;5.82;;;6.00;99.90;;;;;;4988216;28;20030;-77
2022/02/03 08:42:20;;;;;;;5.85;4.55;;;6.20;99.90;;;;;;4992502;28;20093;-81
2022/02/03 08:44:48;;;;;;;6.78;5.00;;;6.20;99.90;;;;;;4992904;28;20042;-81
2022/02/03 08:47:16;;;;;;;7.50;5.45;;;6.20;99.90;;;;;;4993577;28;20045;-84
2022/02/03 08:49:46;;;;;;;7.97;6.28;;;6.60;99.90;;;;;;4992579;28;20034;-82
2022/02/03 08:52:18;;;;;;;13.90;5.40;;;6.20;99.90;;;;;;4991846;28;20050;-78
2022/02/03 08:55:01;;;;;;;9.23;6.10;;;6.20;99.90;;;;;;4981340;28;20039;-77
2022/02/03 08:58:01;;;;;;;8.80;6.13;;;6.10;99.90;;;;;;4989374;28;20169;-76
2022/02/03 09:28:01;;;;;;;9.27;5.60;;;6.20;99.90;;;;;;4992135;28;20045;-77
2022/02/03 09:37:07;;;;;;;5.60;4.50;;;7.30;95.70;;;;;;4990146;28;20046;-77
2022/02/03 09:58:26;;;;;;;14.63;9.40;;;7.30;93.60;;;;;;4991022;28;20038;-78
2022/02/03 10:03:37;;;;;;;6.75;5.05;;;7.40;94.10;;;;;;4987946;28;20411;-78
2022/02/03 10:06:13;;;;;;;7.03;5.78;;;7.30;93.10;;;;;;4971660;28;20066;-77
2022/02/03 10:08:49;;;;;;;5.97;4.72;;;7.30;93.40;;;;;;4988303;28;20084;-79
2022/02/03 10:11:27;;;;;;;7.10;5.30;;;7.20;93.00;;;;;;4991340;28;20124;-77
2022/02/03 10:13:57;;;;;;;7.55;5.50;;;7.30;92.40;;;;;;4991743;28;20061;-79
2022/02/03 10:16:30;;;;;;;8.13;5.13;;;7.30;92.20;;;;;;4990412;28;20054;-78
2022/02/03 10:19:15;;;;;;;5.25;4.75;;;7.20;91.80;;;;;;4988573;28;20044;-75
2022/02/03 10:21:44;;;;;;;7.13;4.70;;;7.20;92.20;;;;;;4990116;28;20385;-78
2022/02/03 10:24:19;;;;;;;6.38;4.88;;;7.20;92.00;;;;;;4988149;28;20379;-77
2022/02/03 10:26:50;;;;;;;6.35;5.53;;;7.20;92.50;;;;;;4990404;28;20039;-76
2022/02/03 10:29:31;;;;;;;5.28;4.50;;;7.30;92.60;;;;;;4990721;28;20042;-82
2022/02/03 10:31:59;;;;;;;9.43;4.80;;;7.20;92.00;;;;;;4973372;28;20053;-81
2022/02/03 10:34:29;;;;;;;6.80;5.30;;;7.30;91.70;;;;;;4991351;28;20636;-79
2022/02/03 10:56:15;;;;;;;6.43;4.63;;;7.40;90.20;;;;;;4994514;28;20421;-79
2022/02/03 11:04:33;;;;;;;9.40;4.38;;;7.30;89.90;;;;;;4991599;28;20050;-76
2022/02/03 11:07:24;;;;;;;5.03;4.53;;;7.50;89.10;;;;;;4994256;28;20038;-79
2022/02/03 11:10:10;;;;;;;6.25;4.55;;;7.60;86.60;;;;;;4994308;28;20042;-78
2022/02/03 11:12:52;;;;;;;5.85;4.60;;;7.60;87.20;;;;;;4993598;28;20069;-77
2022/02/03 11:15:24;;;;;;;5.72;4.35;;;7.60;85.90;;;;;;4993032;28;20050;-85
2022/02/03 11:17:55;;;;;;;10.30;7.13;;;7.50;84.40;;;;;;4975443;28;20050;-77
2022/02/03 11:20:24;;;;;;;11.80;7.88;;;7.60;85.60;;;;;;4976101;28;20034;-73
2022/02/03 11:23:46;;;;;;;6.32;4.53;;;7.90;85.00;;;;;;4989035;28;20447;-76
2022/02/03 11:28:38;;;;;;;6.45;4.95;;;7.70;81.20;;;;;;4994200;28;20508;-85
2022/02/03 11:40:39;;;;;;;5.57;4.57;;;7.70;80.20;;;;;;4976368;28;20077;-78
2022/02/03 11:49:23;;;;;;;5.03;4.25;;;7.60;79.40;;;;;;4993757;28;20400;-73
2022/02/03 12:11:49;;;;;;;5.53;4.63;;;7.80;79.90;;;;;;4993317;28;20405;-77
2022/02/03 12:17:36;;;;;;;7.28;4.85;;;7.90;77.90;;;;;;4967134;28;20060;-82
2022/02/03 12:20:16;;;;;;;5.28;4.60;;;8.00;77.60;;;;;;4992088;28;20038;-77
2022/02/03 12:23:10;;;;;;;4.97;4.40;;;8.00;76.50;;;;;;4992078;28;20061;-77
2022/02/03 12:25:42;;;;;;;6.70;4.88;;;8.00;77.90;;;;;;4991401;28;20085;-76
2022/02/03 12:39:07;;;;;;;5.97;4.43;;;7.90;75.10;;;;;;5007591;28;20046;-84
2022/02/03 12:41:41;;;;;;;6.07;4.30;;;7.90;75.10;;;;;;4973691;28;20089;-77
2022/02/03 12:44:23;;;;;;;4.57;4.07;;;8.00;74.40;;;;;;4992494;28;20054;-77
2022/02/03 12:46:50;;;;;;;7.10;4.90;;;7.80;73.60;;;;;;4992425;28;20068;-75
2022/02/03 12:49:22;;;;;;;6.53;4.25;;;7.90;72.00;;;;;;4992425;28;20113;-81
2022/02/03 12:51:50;;;;;;;5.13;4.20;;;7.90;73.40;;;;;;4992417;28;20394;-74
2022/02/03 12:54:17;;;;;;;5.93;4.60;;;8.00;73.70;;;;;;4992186;28;20134;-82
2022/02/03 12:56:46;;;;;;;6.45;5.18;;;7.90;74.90;;;;;;4975044;28;20057;-77
2022/02/03 12:59:17;;;;;;;6.25;4.75;;;7.90;75.00;;;;;;4992279;28;20042;-75
2022/02/03 13:01:46;;;;;;;7.53;4.30;;;7.90;75.40;;;;;;4991567;28;20061;-79
2022/02/03 13:04:16;;;;;;;5.50;4.25;;;7.70;73.80;;;;;;4992144;28;20050;-76
2022/02/03 13:07:01;;;;;;;8.82;4.43;;;7.70;73.70;;;;;;4991812;28;20398;-77
2022/02/03 13:09:38;;;;;;;6.15;4.60;;;7.70;74.20;;;;;;4990429;28;20574;-78
2022/02/03 13:12:16;;;;;;;5.20;4.63;;;7.80;73.90;;;;;;4990242;28;20385;-76
2022/02/03 13:14:55;;;;;;;8.27;5.72;;;7.70;76.50;;;;;;4973745;28;20050;-76
2022/02/03 13:17:30;;;;;;;6.38;5.53;;;7.70;80.40;;;;;;4990999;28;20045;-74
2022/02/03 13:20:25;;;;;;;7.93;5.93;;;7.70;83.10;;;;;;4991272;28;20046;-77
2022/02/03 13:23:07;;;;;;;9.45;6.10;;;7.80;85.10;;;;;;4991216;28;20030;-76
2022/02/03 13:26:00;;;;;;;8.40;6.63;;;7.60;85.70;;;;;;4991452;28;20068;-77
2022/02/03 13:28:48;;;;;;;9.85;6.53;;;7.50;87.20;;;;;;4989911;28;20042;-76
2022/02/03 13:31:33;;;;;;;11.68;7.07;;;7.50;87.10;;;;;;4989827;28;20367;-78
2022/02/03 13:34:11;;;;;;;13.82;6.80;;;7.60;87.80;;;;;;4990200;28;20509;-76
2022/02/03 13:36:44;;;;;;;8.60;6.80;;;7.50;88.20;;;;;;4990936;28;20042;-76
2022/02/03 13:39:24;;;;;;;10.23;6.93;;;7.60;89.80;;;;;;4991438;28;20065;-76
2022/02/03 13:42:13;;;;;;;8.50;6.30;;;7.60;90.20;;;;;;4989856;28;20046;-77
2022/02/03 13:44:40;;;;;;;12.95;6.40;;;7.40;90.30;;;;;;4973606;28;20418;-78
2022/02/03 13:47:25;;;;;;;7.57;6.30;;;7.40;90.50;;;;;;4990100;28;20100;-78
2022/02/03 13:50:10;;;;;;;11.00;6.68;;;7.50;91.20;;;;;;4988699;28;20046;-76
2022/02/03 14:16:16;;;;;;;8.80;6.32;;;7.30;92.00;;;;;;4991517;28;20061;-75
2022/02/03 14:27:26;;;;;;;8.27;5.40;;;7.90;87.00;;;;;;4976103;28;20039;-74
2022/02/03 14:30:01;;;;;;;9.98;6.05;;;8.50;82.10;;;;;;4993871;28;20031;-76
2022/02/03 14:32:32;;;;;;;6.38;4.82;;;9.40;76.70;;;;;;4993424;28;20043;-74
2022/02/03 14:34:59;;;;;;;;;;;10.20;72.30;;;;;;4994170;28;20061;-74
2022/02/03 14:37:35;;;;;;;7.45;4.85;;;9.40;75.60;;;;;;4976324;28;19929;-78
2022/02/03 14:42:40;;;;;;;7.45;4.47;;;10.10;74.40;;;;;;4991121;28;20041;-78
2022/02/03 14:45:07;;;;;;;6.32;4.22;;;10.20;71.50;;;;;;4994472;28;20057;-74
2022/02/03 14:47:35;;;;;;;6.05;4.22;;;9.80;74.10;;;;;;4993091;28;20089;-77
2022/02/03 14:50:04;;;;;;;6.95;4.53;;;9.80;73.90;;;;;;4993375;28;20046;-75
2022/02/03 14:58:10;;;;;;;7.22;5.25;;;12.20;64.70;;;;;;4992194;28;20121;-77
2022/02/03 15:00:45;;;;;;;8.30;5.15;;;12.80;62.00;;;;;;4992375;28;20548;-78
2022/02/03 15:03:13;;;;;;;;;;;13.10;59.80;;;;;;4985176;28;20599;-74
2022/02/03 15:05:41;;;;;;;6.90;4.53;;;12.90;59.20;;;;;;4993392;28;20289;-78
2022/02/03 15:08:33;;;;;;;6.18;4.40;;;11.30;63.80;;;;;;4993723;28;20049;-75
2022/02/03 15:11:16;;;;;;;6.05;4.55;;;8.70;71.10;;;;;;4983303;28;20047;-79
2022/02/03 15:13:46;;;;;;;11.32;5.95;;;7.50;78.80;;;;;;4990707;28;20030;-76
2022/02/03 15:16:15;;;;;;;9.60;5.57;;;7.60;82.50;;;;;;4992439;28;20125;-74
2022/02/03 15:19:02;;;;;;;9.95;6.30;;;7.40;82.10;;;;;;4990544;28;20042;-75
2022/02/03 15:21:30;;;;;;;9.40;6.85;;;7.40;83.30;;;;;;4992802;28;20042;-78
2022/02/03 15:23:57;;;;;;;8.93;6.68;;;7.40;83.90;;;;;;4992371;28;20433;-75
2022/02/03 15:26:24;;;;;;;11.27;7.35;;;7.30;83.80;;;;;;4992776;28;20053;-76
2022/02/03 15:28:53;;;;;;;8.88;7.07;;;7.10;85.80;;;;;;4993986;28;20057;-73
2022/02/03 15:31:26;;;;;;;10.52;6.88;;;7.10;87.50;;;;;;4992709;28;20042;-76
2022/02/03 15:34:05;;;;;;;9.32;6.95;;;7.00;88.40;;;;;;4993636;28;20054;-77
2022/02/03 15:36:35;;;;;;;11.68;6.47;;;6.90;87.40;;;;;;4975875;28;20053;-75
2022/02/03 15:39:18;;;;;;;9.02;6.90;;;6.80;84.90;;;;;;4993441;28;20088;-77
2022/02/03 15:41:48;;;;;;;10.40;6.45;;;6.70;85.20;;;;;;4976102;28;20038;-75
2022/02/03 15:44:16;;;;;;;13.00;6.85;;;6.70;85.50;;;;;;4993444;28;20061;-73
2022/02/03 15:46:58;;;;;;;9.93;7.13;;;6.60;88.10;;;;;;4993071;28;20053;-72
2022/02/03 15:49:58;;;;;;;9.80;7.38;;;6.60;90.60;;;;;;4992383;28;20040;-74
2022/02/03 16:16:55;;;;;;;11.77;7.95;;;6.30;90.90;;;;;;4989277;28;20054;-77
2022/02/03 16:19:28;;;;;;;10.38;7.75;;;6.30;90.70;;;;;;4991947;28;20042;-77
2022/02/03 16:22:04;;;;;;;11.32;7.78;;;6.30;90.90;;;;;;4992761;28;20053;-75
2022/02/03 16:54:27;;;;;;;17.75;11.55;;;6.00;89.80;;;;;;4995412;28;20045;-89
2022/02/03 16:56:59;;;;;;;12.90;9.32;;;5.90;90.00;;;;;;4994549;28;20069;-75
2022/02/03 16:59:29;;;;;;;13.38;8.57;;;5.80;90.10;;;;;;4994678;28;20042;-81
2022/02/03 17:01:58;;;;;;;10.10;8.52;;;5.80;90.10;;;;;;4998932;28;20043;-77
2022/02/03 17:04:26;;;;;;;11.98;8.88;;;5.60;88.90;;;;;;4991930;28;20050;-73
2022/02/03 17:06:53;;;;;;;12.90;8.93;;;5.60;89.00;;;;;;4989742;28;20100;-75
2022/02/03 17:09:20;;;;;;;11.77;8.55;;;5.60;89.10;;;;;;4986253;28;20126;-76
2022/02/03 17:11:48;;;;;;;13.82;8.32;;;5.50;89.70;;;;;;4991139;28;20050;-73
2022/02/03 17:14:15;;;;;;;17.98;9.35;;;5.40;89.80;;;;;;4991611;28;20509;-72
2022/02/03 17:16:42;;;;;;;13.60;9.65;;;5.30;90.70;;;;;;4991360;28;20403;-71
2022/02/03 17:19:09;;;;;;;14.95;10.38;;;5.40;91.10;;;;;;4987606;28;20038;-73
2022/02/03 17:21:36;;;;;;;17.65;10.85;;;5.30;91.10;;;;;;4976935;28;20489;-74
2022/02/03 17:24:04;;;;;;;14.90;11.52;;;5.30;91.40;;;;;;4991460;28;20049;-73
2022/02/03 17:26:39;;;;;;;23.25;13.45;;;5.10;92.00;;;;;;4989191;28;20042;-73
2022/02/03 17:29:19;;;;;;;18.42;12.20;;;4.90;92.50;;;;;;4991244;28;20047;-73
2022/02/03 18:50:45;;;;;;;14.60;9.65;;;4.80;90.40;;;;;;4994362;28;20042;-72
2022/02/03 18:55:57;;;;;;;21.40;11.63;;;4.80;90.10;;;;;;4993784;28;20299;-73
2022/02/03 19:13:51;;;;;;;17.48;9.18;;;4.80;88.00;;;;;;4993462;28;20038;-74
2022/02/03 19:15:49;;;;;;;11.07;7.40;;;4.90;87.90;;;;;;4973998;28;20054;-73
2022/02/03 20:07:05;;;;;;;44.72;26.02;;;4.80;96.40;;;;;;4991302;28;20414;-78
2022/02/03 20:12:18;;;;;;;21.10;13.52;;;4.80;95.60;;;;;;4975506;28;20047;-77
2022/02/03 20:14:46;;;;;;;26.73;14.82;;;4.70;95.30;;;;;;4992257;28;20493;-75
2022/02/03 20:17:18;;;;;;;27.67;16.52;;;4.60;95.70;;;;;;4992517;28;20121;-74
2022/02/03 20:19:47;;;;;;;31.98;17.48;;;4.60;96.50;;;;;;4992074;28;20042;-74
2022/02/03 20:22:17;;;;;;;31.50;19.15;;;4.80;96.50;;;;;;4992289;28;20125;-75
2022/02/03 20:24:44;;;;;;;40.45;21.80;;;4.80;95.80;;;;;;4992105;28;20039;-79
2022/02/03 20:27:11;;;;;;;36.33;20.25;;;4.80;96.40;;;;;;4992827;28;20054;-77
2022/02/03 20:29:38;;;;;;;26.10;15.85;;;4.80;95.60;;;;;;4992656;28;20046;-79
2022/02/03 20:32:06;;;;;;;22.30;13.63;;;4.80;94.20;;;;;;4992410;28;20042;-79
2022/02/03 20:34:33;;;;;;;29.90;16.80;;;4.70;91.30;;;;;;4989557;28;20045;-78
2022/02/03 20:37:00;;;;;;;30.27;18.38;;;4.70;92.70;;;;;;4992543;28;20498;-78
2022/02/03 20:39:28;;;;;;;34.95;18.67;;;4.50;94.20;;;;;;4991924;28;20045;-78
2022/02/03 20:41:55;;;;;;;31.33;17.05;;;4.30;95.90;;;;;;4992387;28;20043;-76
2022/02/03 20:44:22;;;;;;;22.50;15.23;;;4.30;95.10;;;;;;4992107;28;20038;-75
2022/02/03 20:46:49;;;;;;;25.80;15.80;;;4.20;94.70;;;;;;4991783;28;20049;-76
2022/02/03 20:49:17;;;;;;;32.15;17.65;;;4.40;94.40;;;;;;4990350;28;20555;-75
2022/02/03 20:51:45;;;;;;;32.90;18.20;;;4.50;94.90;;;;;;4990844;28;20423;-75
2022/02/03 20:54:13;;;;;;;67.57;39.25;;;4.50;95.50;;;;;;4990464;28;20038;-77
2022/02/03 20:56:42;;;;;;;75.68;39.90;;;4.70;96.60;;;;;;4991142;28;20049;-77
2022/02/03 20:59:11;;;;;;;48.75;30.23;;;4.80;95.30;;;;;;4990955;28;20034;-76
2022/02/03 21:01:40;;;;;;;22.67;16.75;;;4.80;93.60;;;;;;4991312;28;20105;-74
2022/02/03 21:04:13;;;;;;;21.08;14.15;;;4.60;92.50;;;;;;4991185;28;20047;-73
2022/02/03 21:06:40;;;;;;;16.52;11.07;;;4.50;92.40;;;;;;4974250;28;20394;-75
2022/02/03 21:09:08;;;;;;;14.88;10.55;;;4.50;90.80;;;;;;4991457;28;20054;-75
2022/02/03 21:11:36;;;;;;;19.77;11.38;;;4.50;90.60;;;;;;4991471;28;20046;-73
2022/02/03 21:14:07;;;;;;;26.08;15.65;;;4.60;90.50;;;;;;4990003;28;20093;-73
2022/02/03 21:16:35;;;;;;;32.50;16.85;;;4.70;93.00;;;;;;4972525;28;20072;-78
2022/02/03 21:19:02;;;;;;;25.77;16.25;;;4.50;95.00;;;;;;4991400;28;20655;-76
2022/02/03 21:21:31;;;;;;;33.22;16.05;;;4.30;96.00;;;;;;4991816;28;20046;-73
2022/02/03 21:23:58;;;;;;;36.90;22.77;;;4.20;96.70;;;;;;4991139;28;20038;-77
2022/02/03 21:26:33;;;;;;;49.83;25.60;;;4.40;98.20;;;;;;4991582;28;20650;-79
2022/02/03 21:29:01;;;;;;;34.35;20.77;;;4.40;97.10;;;;;;4988567;28;20049;-72
2022/02/03 21:31:28;;;;;;;80.18;42.05;;;4.30;96.60;;;;;;4991528;28;20046;-75
2022/02/03 21:33:57;;;;;;;36.97;19.95;;;4.50;97.90;;;;;;4988532;28;20049;-76
2022/02/03 21:36:32;;;;;;;37.85;23.02;;;4.50;96.70;;;;;;4991519;28;20053;-75
2022/02/03 21:39:00;;;;;;;30.30;19.25;;;4.50;96.20;;;;;;4991647;28;20064;-75
2022/02/03 21:41:27;;;;;;;26.38;16.85;;;4.50;95.60;;;;;;4992152;28;20053;-73
2022/02/03 21:43:54;;;;;;;28.10;17.35;;;4.50;95.30;;;;;;4992066;28;20050;-75
2022/02/03 21:46:21;;;;;;;27.15;17.85;;;4.50;96.10;;;;;;4991593;28;20038;-76
2022/02/03 21:48:49;;;;;;;29.25;16.88;;;4.50;97.00;;;;;;4991522;28;20057;-77
2022/02/03 21:51:22;;;;;;;30.75;16.70;;;4.40;96.90;;;;;;4991370;28;20042;-78
2022/02/03 21:53:50;;;;;;;32.95;16.20;;;4.40;96.30;;;;;;4991830;28;20042;-79
2022/02/03 21:56:19;;;;;;;26.00;16.80;;;4.40;96.40;;;;;;4992120;28;20422;-81
2022/02/03 21:58:48;;;;;;;27.15;17.20;;;4.40;95.80;;;;;;4982666;28;20034;-80
2022/02/03 22:01:16;;;;;;;44.45;23.38;;;4.40;96.60;;;;;;4985324;28;20117;-74
2022/02/03 22:03:45;;;;;;;44.13;23.23;;;4.10;96.90;;;;;;4990160;28;20045;-72
2022/02/03 22:06:12;;;;;;;36.80;20.60;;;4.10;98.30;;;;;;4990934;28;20057;-81
2022/02/03 22:08:42;;;;;;;30.90;19.65;;;4.20;98.40;;;;;;4991738;28;20358;-83
2022/02/03 22:11:09;;;;;;;32.75;19.38;;;3.90;98.00;;;;;;4990404;28;20405;-74
2022/02/03 22:13:39;;;;;;;34.45;18.60;;;4.00;98.80;;;;;;4988951;28;20371;-75
2022/02/03 22:16:16;;;;;;;34.15;19.48;;;4.00;99.30;;;;;;4991155;28;20058;-72
2022/02/03 22:18:44;;;;;;;32.33;20.08;;;4.10;99.20;;;;;;4990912;28;20061;-77
2022/02/03 22:21:22;;;;;;;34.47;19.25;;;4.10;98.80;;;;;;4989580;28;20056;-72
2022/02/03 22:23:59;;;;;;;31.38;18.40;;;3.80;99.90;;;;;;4985358;28;20039;-77
2022/02/03 22:50:07;;;;;;;29.60;18.80;;;3.60;99.90;;;;;;4992727;28;20034;-74
2022/02/03 22:52:40;;;;;;;21.05;14.75;;;3.20;99.90;;;;;;4994131;28;20042;-79
2022/02/03 22:55:08;;;;;;;24.33;15.20;;;2.90;99.90;;;;;;4990318;28;20122;-77
2022/02/03 22:57:35;;;;;;;31.25;17.05;;;3.20;99.90;;;;;;4989928;28;20592;-76
2022/02/03 23:00:17;;;;;;;29.20;16.55;;;3.20;99.90;;;;;;4987890;28;20117;-75
2022/02/03 23:02:45;;;;;;;21.75;13.82;;;3.30;99.90;;;;;;4992486;28;20035;-73
2022/02/03 23:05:13;;;;;;;18.73;12.20;;;3.20;99.90;;;;;;4992999;28;20038;-82
2022/02/03 23:10:39;;;;;;;25.13;15.07;;;3.30;99.90;;;;;;4992894;28;20042;-74
2022/02/03 23:13:23;;;;;;;25.95;15.43;;;3.10;99.90;;;;;;4993705;28;20046;-76
2022/02/03 23:16:05;;;;;;;22.70;14.93;;;3.20;99.90;;;;;;4993847;28;20081;-74
2022/02/03 23:23:45;;;;;;;16.65;11.55;;;3.40;99.50;;;;;;4992536;28;20058;-75
2022/02/03 23:26:12;;;;;;;16.05;11.40;;;3.00;99.90;;;;;;4993074;28;20053;-73
2022/02/03 23:28:39;;;;;;;20.55;11.52;;;2.80;99.90;;;;;;4993990;28;20084;-76
2022/02/03 23:31:07;;;;;;;15.55;11.45;;;2.50;99.90;;;;;;4993168;28;20057;-74
2022/02/03 23:33:34;;;;;;;19.95;11.55;;;2.30;99.90;;;;;;4989863;28;20042;-73
2022/02/03 23:36:01;;;;;;;15.88;10.73;;;2.10;99.90;;;;;;4992964;28;20396;-75
2022/02/03 23:38:46;;;;;;;12.40;9.10;;;2.00;99.90;;;;;;4993655;28;20046;-73
2022/02/03 23:49:49;;;;;;;15.25;9.65;;;2.00;99.90;;;;;;4993459;28;20041;-73
